Time;durP1;ratioP1;P1;durP2;ratioP2;P2;SDS_P1;SDS_P2;PMS_P1;PMS_P2;Temp;Humidity;BMP_temperature;BMP_pressure;BME280_temperature;BME280_humidity;BME280_pressure;Samples;Min_cycle;Max_cycle;Signal;HPM_P1;HPM_P2
2021/09/26 00:01:56;;;;;;;17.45;11.60;;;;;;;;;;5114105;28;20085;-57
2021/09/26 00:04:23;;;;;;;16.55;11.88;;;;;;;;;;5114183;28;20015;-63
2021/09/26 00:06:48;;;;;;;18.85;12.30;;;;;;;;;;5113355;28;20055;-63
2021/09/26 00:09:14;;;;;;;22.60;12.75;;;;;;;;;;5116783;28;20067;-57
2021/09/26 00:11:40;;;;;;;17.92;11.63;;;;;;;;;;5117924;28;20019;-57
2021/09/26 00:14:07;;;;;;;16.75;12.25;;;;;;;;;;5117964;28;20035;-57
2021/09/26 00:16:33;;;;;;;17.70;11.15;;;;;;;;;;5117878;28;20099;-57
2021/09/26 00:18:58;;;;;;;20.77;12.30;;;;;;;;;;5117835;28;20501;-62
2021/09/26 00:21:24;;;;;;;18.15;11.85;;;;;;;;;;5117527;28;20383;-57
2021/09/26 00:23:49;;;;;;;18.95;11.73;;;;;;;;;;5117585;28;20061;-57
2021/09/26 00:26:15;;;;;;;29.58;11.60;;;;;;;;;;5117622;28;20085;-63
2021/09/26 00:28:40;;;;;;;17.73;11.70;;;;;;;;;;5117809;28;20387;-63
2021/09/26 00:31:05;;;;;;;18.67;11.32;;;;;;;;;;5117792;28;20023;-63
2021/09/26 00:33:33;;;;;;;18.45;11.40;;;;;;;;;;5117878;28;20027;-63
2021/09/26 00:35:58;;;;;;;18.88;11.63;;;;;;;;;;5117607;28;20020;-63
2021/09/26 00:38:24;;;;;;;18.98;11.95;;;;;;;;;;5117243;28;20032;-56
2021/09/26 00:40:50;;;;;;;19.02;11.13;;;;;;;;;;5117283;28;20020;-56
2021/09/26 00:43:16;;;;;;;18.77;11.45;;;;;;;;;;5117270;28;20490;-56
2021/09/26 00:45:41;;;;;;;18.73;12.05;;;;;;;;;;5117077;28;20015;-56
2021/09/26 00:48:07;;;;;;;15.98;11.55;;;;;;;;;;5117117;28;20032;-56
2021/09/26 00:50:33;;;;;;;21.63;12.13;;;;;;;;;;5117122;28;20023;-56
2021/09/26 00:52:58;;;;;;;15.73;11.73;;;;;;;;;;5117448;28;20031;-56
2021/09/26 00:55:24;;;;;;;15.63;11.45;;;;;;;;;;5117346;28;20016;-56
2021/09/26 00:57:49;;;;;;;16.55;11.50;;;;;;;;;;5098335;28;20069;-56
2021/09/26 01:00:16;;;;;;;20.35;11.55;;;;;;;;;;5098586;28;20016;-56
2021/09/26 01:02:42;;;;;;;17.58;11.35;;;;;;;;;;5098915;28;20032;-56
2021/09/26 01:05:08;;;;;;;20.17;11.65;;;;;;;;;;5116876;28;20356;-57
2021/09/26 01:07:56;;;;;;;15.90;11.60;;;;;;;;;;5116957;28;20027;-56
2021/09/26 01:10:21;;;;;;;18.42;11.55;;;;;;;;;;5116832;28;20069;-57
2021/09/26 01:12:52;;;;;;;20.30;12.68;;;;;;;;;;5117045;28;20047;-62
2021/09/26 01:15:30;;;;;;;18.98;11.68;;;;;;;;;;5116644;28;20101;-62
2021/09/26 01:18:03;;;;;;;19.40;11.63;;;;;;;;;;5116843;28;20028;-62
2021/09/26 01:20:29;;;;;;;18.98;11.50;;;;;;;;;;5115666;28;20443;-63
2021/09/26 01:23:04;;;;;;;17.40;11.68;;;;;;;;;;5116555;28;20073;-63
2021/09/26 01:25:49;;;;;;;21.33;12.27;;;;;;;;;;5098378;28;20512;-56
2021/09/26 01:28:26;;;;;;;16.30;11.63;;;;;;;;;;5116355;28;20047;-56
2021/09/26 01:30:54;;;;;;;20.50;11.90;;;;;;;;;;5116615;28;20035;-56
2021/09/26 01:33:31;;;;;;;21.52;12.63;;;;;;;;;;5116508;28;20433;-56
2021/09/26 01:36:00;;;;;;;17.48;11.80;;;;;;;;;;5098137;28;20027;-57
2021/09/26 01:38:29;;;;;;;16.90;11.70;;;;;;;;;;5116121;28;20032;-56
2021/09/26 01:40:57;;;;;;;14.45;11.43;;;;;;;;;;5116030;28;20031;-56
2021/09/26 01:43:28;;;;;;;16.25;11.45;;;;;;;;;;5116200;28;20382;-62
2021/09/26 01:45:54;;;;;;;;;;;;;;;;;;5098109;28;20072;-62
2021/09/26 01:48:27;;;;;;;14.95;11.70;;;;;;;;;;5116434;28;19911;-63
2021/09/26 01:50:57;;;;;;;18.95;13.35;;;;;;;;;;5116153;28;20074;-63
2021/09/26 01:53:24;;;;;;;19.37;13.63;;;;;;;;;;5116187;28;20016;-62
2021/09/26 01:55:50;;;;;;;17.65;13.35;;;;;;;;;;5115912;28;20031;-63
2021/09/26 01:58:16;;;;;;;17.63;12.57;;;;;;;;;;5115633;28;20131;-63
2021/09/26 02:00:42;;;;;;;19.13;13.02;;;;;;;;;;5097696;28;20368;-63
2021/09/26 02:03:08;;;;;;;20.33;13.30;;;;;;;;;;5115836;28;20023;-63
2021/09/26 02:05:38;;;;;;;19.23;13.13;;;;;;;;;;5116069;28;20024;-62
2021/09/26 02:08:06;;;;;;;16.50;13.02;;;;;;;;;;5115811;28;20141;-62
2021/09/26 02:10:32;;;;;;;18.70;12.30;;;;;;;;;;5115605;28;20027;-62
2021/09/26 02:12:59;;;;;;;19.75;13.18;;;;;;;;;;5097487;28;20443;-62
2021/09/26 02:15:25;;;;;;;18.58;13.10;;;;;;;;;;5116006;28;20031;-62
2021/09/26 02:17:53;;;;;;;17.88;13.32;;;;;;;;;;5115510;28;20043;-62
2021/09/26 02:20:19;;;;;;;18.42;12.73;;;;;;;;;;5115390;28;20034;-63
2021/09/26 02:22:47;;;;;;;18.05;13.07;;;;;;;;;;5115616;28;20027;-56
2021/09/26 02:25:13;;;;;;;15.68;12.02;;;;;;;;;;5115015;28;20023;-61
2021/09/26 02:27:38;;;;;;;16.88;12.23;;;;;;;;;;5115634;28;20026;-63
2021/09/26 02:30:05;;;;;;;14.98;11.07;;;;;;;;;;5115362;28;20103;-62
2021/09/26 02:32:30;;;;;;;16.52;11.48;;;;;;;;;;5114947;28;20016;-64
2021/09/26 02:34:56;;;;;;;18.77;11.82;;;;;;;;;;5115449;28;20375;-63
2021/09/26 02:37:22;;;;;;;18.05;11.77;;;;;;;;;;5115128;28;20044;-63
2021/09/26 02:39:47;;;;;;;15.07;10.93;;;;;;;;;;5115018;28;20063;-63
2021/09/26 02:42:13;;;;;;;18.15;11.65;;;;;;;;;;5114896;28;20072;-64
2021/09/26 02:44:40;;;;;;;14.68;11.07;;;;;;;;;;5114847;28;20035;-63
2021/09/26 02:47:09;;;;;;;16.25;11.65;;;;;;;;;;5114960;28;20459;-64
2021/09/26 02:49:34;;;;;;;17.00;11.20;;;;;;;;;;5114656;28;20028;-63
2021/09/26 02:52:00;;;;;;;18.98;12.70;;;;;;;;;;5115256;28;20154;-56
2021/09/26 02:54:26;;;;;;;18.92;12.95;;;;;;;;;;5115135;28;20375;-56
2021/09/26 02:56:51;;;;;;;19.65;13.05;;;;;;;;;;5115123;28;20077;-62
2021/09/26 02:59:19;;;;;;;17.17;12.48;;;;;;;;;;5096621;28;20047;-63
2021/09/26 03:01:51;;;;;;;14.43;11.40;;;;;;;;;;5114879;28;20028;-57
2021/09/26 03:04:18;;;;;;;14.63;11.05;;;;;;;;;;5114923;28;20061;-56
2021/09/26 03:06:43;;;;;;;16.55;11.80;;;;;;;;;;5114807;28;20073;-57
2021/09/26 03:09:09;;;;;;;16.80;11.25;;;;;;;;;;5096451;28;20374;-56
2021/09/26 03:11:34;;;;;;;16.75;11.43;;;;;;;;;;5114326;28;20027;-57
2021/09/26 03:14:00;;;;;;;16.48;11.95;;;;;;;;;;5114330;28;20096;-56
2021/09/26 03:16:25;;;;;;;17.85;11.70;;;;;;;;;;5114906;28;20110;-56
2021/09/26 03:18:51;;;;;;;17.05;11.57;;;;;;;;;;5114294;28;20039;-63
2021/09/26 03:21:16;;;;;;;17.73;11.02;;;;;;;;;;5114387;28;20061;-63
2021/09/26 03:23:42;;;;;;;17.40;11.60;;;;;;;;;;5095997;28;20473;-63
2021/09/26 03:26:07;;;;;;;14.45;10.65;;;;;;;;;;5114331;28;20022;-63
2021/09/26 03:28:33;;;;;;;13.52;10.40;;;;;;;;;;5114553;28;20024;-63
2021/09/26 03:30:58;;;;;;;13.27;9.98;;;;;;;;;;5114245;28;20029;-63
2021/09/26 03:33:25;;;;;;;15.63;10.70;;;;;;;;;;5114221;28;20486;-63
2021/09/26 03:35:51;;;;;;;15.02;11.82;;;;;;;;;;5114313;28;20016;-63
2021/09/26 03:38:16;;;;;;;15.00;11.18;;;;;;;;;;5095847;28;20031;-63
2021/09/26 03:40:42;;;;;;;14.25;10.65;;;;;;;;;;5114105;28;20032;-63
2021/09/26 03:43:07;;;;;;;12.90;10.88;;;;;;;;;;5112796;28;20036;-63
2021/09/26 03:45:34;;;;;;;14.23;11.55;;;;;;;;;;5115152;28;20019;-63
2021/09/26 03:47:59;;;;;;;18.13;11.77;;;;;;;;;;5113962;28;20447;-63
2021/09/26 03:50:24;;;;;;;14.38;11.02;;;;;;;;;;5114189;28;20046;-62
2021/09/26 03:52:52;;;;;;;15.15;11.30;;;;;;;;;;5114076;28;20062;-63
2021/09/26 03:55:17;;;;;;;13.43;10.68;;;;;;;;;;5113816;28;20012;-57
2021/09/26 03:57:43;;;;;;;15.60;11.30;;;;;;;;;;5113509;28;20127;-57
2021/09/26 04:00:10;;;;;;;12.98;10.45;;;;;;;;;;5113888;28;20020;-57
2021/09/26 04:02:39;;;;;;;13.50;9.57;;;;;;;;;;5096390;28;20028;-57
2021/09/26 04:05:05;;;;;;;12.32;9.80;;;;;;;;;;5113826;28;20031;-57
2021/09/26 04:07:30;;;;;;;12.27;9.93;;;;;;;;;;5113915;28;20028;-57
2021/09/26 04:09:55;;;;;;;12.07;9.95;;;;;;;;;;5113591;28;20499;-57
2021/09/26 04:12:21;;;;;;;15.10;10.60;;;;;;;;;;5113717;28;20374;-57
2021/09/26 04:14:48;;;;;;;13.55;9.95;;;;;;;;;;5113585;28;20019;-57
2021/09/26 04:17:13;;;;;;;13.45;9.63;;;;;;;;;;5095623;28;20035;-57
2021/09/26 04:19:38;;;;;;;12.93;10.05;;;;;;;;;;5113469;28;20030;-57
2021/09/26 04:22:04;;;;;;;12.73;9.95;;;;;;;;;;5113461;28;20023;-57
2021/09/26 04:24:29;;;;;;;13.57;9.73;;;;;;;;;;5113328;28;20039;-57
2021/09/26 04:26:55;;;;;;;12.57;9.50;;;;;;;;;;5114115;28;20027;-63
2021/09/26 04:29:20;;;;;;;12.68;9.10;;;;;;;;;;5113605;28;20026;-63
2021/09/26 04:31:49;;;;;;;13.27;9.73;;;;;;;;;;5113582;28;20078;-63
2021/09/26 04:34:14;;;;;;;12.70;9.95;;;;;;;;;;5113350;28;20035;-63
2021/09/26 04:36:40;;;;;;;14.43;9.68;;;;;;;;;;5095586;28;20032;-57
2021/09/26 04:39:05;;;;;;;12.82;9.77;;;;;;;;;;5113134;28;20402;-57
2021/09/26 04:41:30;;;;;;;14.55;9.48;;;;;;;;;;5113690;28;20446;-57
2021/09/26 04:43:56;;;;;;;13.40;9.48;;;;;;;;;;5113327;28;20027;-57
2021/09/26 04:46:21;;;;;;;12.50;9.45;;;;;;;;;;5113715;28;20088;-57
2021/09/26 04:48:47;;;;;;;12.65;9.27;;;;;;;;;;5113601;28;20387;-57
2021/09/26 04:51:12;;;;;;;12.05;9.18;;;;;;;;;;5113547;28;20080;-57
2021/09/26 04:53:38;;;;;;;10.63;8.52;;;;;;;;;;5113842;28;20375;-57
2021/09/26 04:56:04;;;;;;;10.80;8.57;;;;;;;;;;5116958;28;20066;-57
2021/09/26 04:58:29;;;;;;;12.20;9.13;;;;;;;;;;5116369;28;20051;-57
2021/09/26 05:00:55;;;;;;;10.75;9.38;;;;;;;;;;5117257;28;20402;-57
2021/09/26 05:03:20;;;;;;;11.15;8.48;;;;;;;;;;5098617;28;20024;-57
2021/09/26 05:05:47;;;;;;;12.55;8.90;;;;;;;;;;5116793;28;20028;-63
2021/09/26 05:08:13;;;;;;;12.38;8.80;;;;;;;;;;5117355;28;20022;-63
2021/09/26 05:10:39;;;;;;;10.90;8.32;;;;;;;;;;5117265;28;20023;-63
2021/09/26 05:13:04;;;;;;;10.73;8.63;;;;;;;;;;5117141;28;20027;-64
2021/09/26 05:15:30;;;;;;;10.60;8.45;;;;;;;;;;5116797;28;20039;-64
2021/09/26 05:17:56;;;;;;;11.80;8.25;;;;;;;;;;5116834;28;20050;-57
2021/09/26 05:20:22;;;;;;;9.52;7.72;;;;;;;;;;5116929;28;20442;-57
2021/09/26 05:22:48;;;;;;;12.55;8.65;;;;;;;;;;5116724;28;20047;-63
2021/09/26 05:25:15;;;;;;;11.98;8.48;;;;;;;;;;5116823;28;20376;-63
2021/09/26 05:27:41;;;;;;;9.82;8.18;;;;;;;;;;5117112;28;20023;-63
2021/09/26 05:30:07;;;;;;;12.57;8.65;;;;;;;;;;5117191;28;20106;-62
2021/09/26 05:32:33;;;;;;;12.43;8.43;;;;;;;;;;5116806;28;20050;-63
2021/09/26 05:34:58;;;;;;;13.02;8.82;;;;;;;;;;5116350;28;20535;-63
2021/09/26 05:37:24;;;;;;;12.73;9.02;;;;;;;;;;5116406;28;20168;-63
2021/09/26 05:39:49;;;;;;;11.98;9.38;;;;;;;;;;5116568;28;20024;-63
2021/09/26 05:42:15;;;;;;;11.13;9.73;;;;;;;;;;5116323;28;20479;-63
2021/09/26 05:44:40;;;;;;;10.93;9.30;;;;;;;;;;5116308;28;20041;-63
2021/09/26 05:47:07;;;;;;;11.32;9.02;;;;;;;;;;5116503;28;20354;-63
2021/09/26 05:49:36;;;;;;;13.23;9.20;;;;;;;;;;5115900;28;20028;-63
2021/09/26 05:52:06;;;;;;;11.45;9.30;;;;;;;;;;5116367;28;20034;-63
2021/09/26 05:54:32;;;;;;;12.13;8.98;;;;;;;;;;5116586;28;20105;-63
2021/09/26 05:56:58;;;;;;;12.98;9.23;;;;;;;;;;5116440;28;20459;-63
2021/09/26 05:59:24;;;;;;;12.30;9.18;;;;;;;;;;5115836;28;20040;-63
2021/09/26 06:01:49;;;;;;;14.07;9.50;;;;;;;;;;5115905;28;20077;-63
2021/09/26 06:04:15;;;;;;;11.77;9.48;;;;;;;;;;5115874;28;20026;-63
2021/09/26 06:06:40;;;;;;;12.15;9.80;;;;;;;;;;5115090;28;20019;-63
2021/09/26 06:09:06;;;;;;;11.73;9.70;;;;;;;;;;5115960;28;20182;-63
2021/09/26 06:11:31;;;;;;;12.15;10.07;;;;;;;;;;5116032;28;20019;-63
2021/09/26 06:13:57;;;;;;;14.02;10.05;;;;;;;;;;5115984;28;20031;-62
2021/09/26 06:16:24;;;;;;;14.40;10.98;;;;;;;;;;5115881;28;20099;-63
2021/09/26 06:18:50;;;;;;;16.63;12.27;;;;;;;;;;5115560;28;20024;-62
2021/09/26 06:21:15;;;;;;;18.15;13.40;;;;;;;;;;5115511;28;20511;-63
2021/09/26 06:23:41;;;;;;;22.83;15.63;;;;;;;;;;5115983;28;20031;-62
2021/09/26 06:26:06;;;;;;;24.27;15.63;;;;;;;;;;5115513;28;20094;-63
2021/09/26 06:28:32;;;;;;;21.23;14.05;;;;;;;;;;5115256;28;20035;-62
2021/09/26 06:30:57;;;;;;;21.40;13.30;;;;;;;;;;5107982;28;20061;-56
2021/09/26 06:33:26;;;;;;;18.15;12.75;;;;;;;;;;5076969;28;20507;-56
2021/09/26 06:35:51;;;;;;;18.08;12.40;;;;;;;;;;5094941;28;20122;-56
2021/09/26 06:38:17;;;;;;;15.70;12.32;;;;;;;;;;5094148;28;20443;-56
2021/09/26 06:40:42;;;;;;;13.95;10.77;;;;;;;;;;5094604;28;20031;-56
2021/09/26 06:43:08;;;;;;;17.92;12.68;;;;;;;;;;5093555;28;20020;-56
2021/09/26 06:45:34;;;;;;;18.23;13.60;;;;;;;;;;5094820;28;20024;-56
2021/09/26 06:48:00;;;;;;;15.35;12.40;;;;;;;;;;5094358;28;20107;-56
2021/09/26 06:50:26;;;;;;;17.63;12.52;;;;;;;;;;5094247;28;20126;-56
2021/09/26 06:52:52;;;;;;;18.45;12.95;;;;;;;;;;5094169;28;20028;-56
2021/09/26 06:55:17;;;;;;;17.73;13.35;;;;;;;;;;5087690;28;20089;-56
2021/09/26 06:57:43;;;;;;;18.17;12.57;;;;;;;;;;5091848;28;20089;-62
2021/09/26 07:00:10;;;;;;;20.15;14.00;;;;;;;;;;5091531;28;20122;-55
2021/09/26 07:02:35;;;;;;;17.63;13.43;;;;;;;;;;5092296;28;20051;-61
2021/09/26 07:05:02;;;;;;;17.65;13.75;;;;;;;;;;5093476;28;20427;-61
2021/09/26 07:07:37;;;;;;;17.90;14.05;;;;;;;;;;5093424;28;20035;-62
2021/09/26 07:10:03;;;;;;;23.52;14.68;;;;;;;;;;5092898;28;20043;-62
2021/09/26 07:12:29;;;;;;;15.13;12.70;;;;;;;;;;5093467;28;20024;-61
2021/09/26 07:14:57;;;;;;;20.08;12.48;;;;;;;;;;5093207;28;20023;-61
2021/09/26 07:17:22;;;;;;;15.43;10.85;;;;;;;;;;5093448;28;20027;-61
2021/09/26 07:19:49;;;;;;;14.48;10.13;;;;;;;;;;5093198;28;20076;-61
2021/09/26 07:22:19;;;;;;;12.02;9.90;;;;;;;;;;5075129;28;20823;-61
2021/09/26 07:24:44;;;;;;;14.45;10.07;;;;;;;;;;5092819;28;20028;-62
2021/09/26 07:27:15;;;;;;;11.73;10.18;;;;;;;;;;5092693;28;20030;-61
2021/09/26 07:29:41;;;;;;;13.23;10.82;;;;;;;;;;5092685;28;20059;-61
2021/09/26 07:32:08;;;;;;;13.55;10.13;;;;;;;;;;5092424;28;20071;-61
2021/09/26 07:34:34;;;;;;;11.30;9.98;;;;;;;;;;5091601;28;20024;-61
2021/09/26 07:36:59;;;;;;;12.20;9.23;;;;;;;;;;5091719;28;20372;-61
2021/09/26 07:39:25;;;;;;;13.90;9.25;;;;;;;;;;5091470;28;20042;-61
2021/09/26 07:41:50;;;;;;;11.05;9.15;;;;;;;;;;5091893;28;20497;-61
2021/09/26 07:44:18;;;;;;;12.35;8.77;;;;;;;;;;5091992;28;20036;-61
2021/09/26 07:46:48;;;;;;;11.27;9.68;;;;;;;;;;5092585;28;20023;-61
2021/09/26 07:49:15;;;;;;;;;;;;;;;;;;5092995;28;20025;-61
2021/09/26 07:51:45;;;;;;;10.07;7.97;;;;;;;;;;5092565;28;19904;-61
2021/09/26 07:54:12;;;;;;;;;;;;;;;;;;5092848;28;20433;-61
2021/09/26 07:56:38;;;;;;;11.38;7.97;;;;;;;;;;5092400;28;19907;-61
2021/09/26 07:59:04;;;;;;;9.68;7.80;;;;;;;;;;5057826;28;20389;-61
2021/09/26 08:01:29;;;;;;;8.60;7.40;;;;;;;;;;5071679;28;20028;-61
2021/09/26 08:03:54;;;;;;;10.23;7.68;;;;;;;;;;5072245;28;20028;-61
2021/09/26 08:06:20;;;;;;;9.70;7.13;;;;;;;;;;5072235;28;20020;-61
2021/09/26 08:08:45;;;;;;;14.43;10.07;;;;;;;;;;5072313;28;20088;-61
2021/09/26 08:11:13;;;;;;;7.85;6.88;;;;;;;;;;5072137;28;20017;-61
2021/09/26 08:13:41;;;;;;;9.38;7.20;;;;;;;;;;5072245;28;20036;-61
2021/09/26 08:16:09;;;;;;;7.70;6.32;;;;;;;;;;5071967;28;20666;-61
2021/09/26 08:18:34;;;;;;;7.28;6.50;;;;;;;;;;5054524;28;20056;-61
2021/09/26 08:21:00;;;;;;;8.50;6.80;;;;;;;;;;5071682;28;20566;-61
2021/09/26 08:23:25;;;;;;;9.48;6.90;;;;;;;;;;5070578;28;20040;-60
2021/09/26 08:25:51;;;;;;;8.40;7.18;;;;;;;;;;5069963;28;20020;-65
2021/09/26 08:28:18;;;;;;;8.10;6.80;;;;;;;;;;5069554;28;20387;-61
2021/09/26 08:30:43;;;;;;;8.52;6.63;;;;;;;;;;5073790;28;20175;-60
2021/09/26 08:33:09;;;;;;;8.63;6.78;;;;;;;;;;5055954;28;20544;-60
2021/09/26 08:35:34;;;;;;;6.90;6.25;;;;;;;;;;5073176;28;20502;-60
2021/09/26 08:38:00;;;;;;;7.25;5.82;;;;;;;;;;5072670;28;20028;-61
2021/09/26 08:40:25;;;;;;;7.97;6.32;;;;;;;;;;5074111;28;20095;-62
2021/09/26 08:42:51;;;;;;;7.25;6.50;;;;;;;;;;5074076;28;20034;-61
2021/09/26 08:45:17;;;;;;;7.60;6.47;;;;;;;;;;5073996;28;20031;-62
2021/09/26 08:47:43;;;;;;;7.40;6.70;;;;;;;;;;5074232;28;20119;-62
2021/09/26 08:50:11;;;;;;;6.57;5.88;;;;;;;;;;5073365;28;20740;-61
2021/09/26 08:52:37;;;;;;;8.65;6.45;;;;;;;;;;5072508;28;20468;-61
2021/09/26 08:55:04;;;;;;;6.93;6.22;;;;;;;;;;5072267;28;20020;-61
2021/09/26 08:57:30;;;;;;;9.50;6.72;;;;;;;;;;5072554;28;20033;-61
2021/09/26 08:59:55;;;;;;;6.93;6.22;;;;;;;;;;5073217;28;20491;-61
2021/09/26 09:02:21;;;;;;;6.00;5.50;;;;;;;;;;5073480;28;20111;-61
2021/09/26 09:04:46;;;;;;;8.23;6.60;;;;;;;;;;5072935;28;20051;-61
2021/09/26 09:07:12;;;;;;;7.40;5.50;;;;;;;;;;5073479;28;20480;-62
2021/09/26 09:09:47;;;;;;;6.90;6.30;;;;;;;;;;5073628;28;20085;-61
2021/09/26 09:12:13;;;;;;;12.15;5.75;;;;;;;;;;5073529;28;20119;-62
2021/09/26 09:14:55;;;;;;;7.10;5.70;;;;;;;;;;5073270;28;20111;-62
2021/09/26 09:17:24;;;;;;;8.32;6.10;;;;;;;;;;5073416;28;20040;-61
2021/09/26 09:20:09;;;;;;;9.00;5.85;;;;;;;;;;5075198;28;20032;-61
2021/09/26 09:22:35;;;;;;;5.78;5.22;;;;;;;;;;5057806;28;20033;-61
2021/09/26 09:25:00;;;;;;;6.03;4.38;;;;;;;;;;5075801;28;20070;-62
2021/09/26 09:27:26;;;;;;;5.60;4.95;;;;;;;;;;5075298;28;20021;-62
2021/09/26 09:29:52;;;;;;;5.18;4.10;;;;;;;;;;5076072;28;20460;-62
2021/09/26 09:32:18;;;;;;;4.68;4.03;;;;;;;;;;5075915;28;20368;-62
2021/09/26 09:34:44;;;;;;;5.10;4.10;;;;;;;;;;5075957;28;20024;-62
2021/09/26 09:37:15;;;;;;;4.43;3.97;;;;;;;;;;5075756;28;20029;-62
2021/09/26 09:39:42;;;;;;;4.40;4.00;;;;;;;;;;5075589;28;20028;-62
2021/09/26 09:42:20;;;;;;;6.40;4.75;;;;;;;;;;5074530;28;20017;-62
2021/09/26 09:44:46;;;;;;;3.90;3.53;;;;;;;;;;5075681;28;20060;-62
2021/09/26 09:47:12;;;;;;;3.60;3.40;;;;;;;;;;5075585;28;20110;-62
2021/09/26 09:49:51;;;;;;;4.45;4.05;;;;;;;;;;5075364;28;20029;-62
2021/09/26 09:52:16;;;;;;;4.13;3.83;;;;;;;;;;5075810;28;20106;-62
2021/09/26 09:54:41;;;;;;;4.25;3.83;;;;;;;;;;5075701;28;20464;-62
2021/09/26 09:57:10;;;;;;;4.93;3.90;;;;;;;;;;5075572;28;20032;-63
2021/09/26 09:59:36;;;;;;;3.95;3.65;;;;;;;;;;5095339;28;20047;-62
2021/09/26 10:02:02;;;;;;;3.90;3.50;;;;;;;;;;5095552;28;20024;-62
2021/09/26 10:04:38;;;;;;;5.10;3.42;;;;;;;;;;5095371;28;20105;-62
2021/09/26 10:07:36;;;;;;;3.83;3.47;;;;;;;;;;5095709;28;20039;-62
2021/09/26 10:10:01;;;;;;;3.90;3.60;;;;;;;;;;5038811;28;20048;-62
2021/09/26 10:12:28;;;;;;;3.70;3.40;;;;;;;;;;5095494;28;20062;-62
2021/09/26 10:14:56;;;;;;;4.05;3.65;;;;;;;;;;5077844;28;20024;-62
2021/09/26 10:17:21;;;;;;;6.75;3.30;;;;;;;;;;5077175;28;20500;-62
2021/09/26 10:19:47;;;;;;;4.07;3.55;;;;;;;;;;5095005;28;20111;-62
2021/09/26 10:22:16;;;;;;;4.05;3.40;;;;;;;;;;5094882;28;20395;-62
2021/09/26 10:24:43;;;;;;;4.25;3.60;;;;;;;;;;5094967;28;20074;-62
2021/09/26 10:27:11;;;;;;;3.67;3.47;;;;;;;;;;5094930;28;20016;-62
2021/09/26 10:29:38;;;;;;;4.05;3.53;;;;;;;;;;5077270;28;20098;-62
2021/09/26 10:32:05;;;;;;;3.65;3.35;;;;;;;;;;5094745;28;20066;-62
2021/09/26 10:34:31;;;;;;;3.72;3.17;;;;;;;;;;5094571;28;20134;-62
2021/09/26 10:36:57;;;;;;;3.60;3.40;;;;;;;;;;5095041;28;20079;-62
2021/09/26 10:39:25;;;;;;;3.78;3.53;;;;;;;;;;5094747;28;20493;-62
2021/09/26 10:42:02;;;;;;;3.83;3.28;;;;;;;;;;5090066;28;20016;-62
2021/09/26 10:44:29;;;;;;;4.72;3.30;;;;;;;;;;5094775;28;20103;-62
2021/09/26 10:47:15;;;;;;;3.75;3.45;;;;;;;;;;5094667;28;20049;-62
2021/09/26 10:49:43;;;;;;;4.07;3.72;;;;;;;;;;5094735;28;20036;-62
2021/09/26 10:52:29;;;;;;;4.30;3.90;;;;;;;;;;5094154;28;20018;-62
2021/09/26 10:54:55;;;;;;;3.70;3.50;;;;;;;;;;5094339;28;20379;-62
2021/09/26 10:57:22;;;;;;;4.20;3.78;;;;;;;;;;5094112;28;20031;-60
2021/09/26 10:59:58;;;;;;;4.10;3.90;;;;;;;;;;5094419;28;20554;-59
2021/09/26 11:02:26;;;;;;;4.13;3.72;;;;;;;;;;5094051;28;20028;-59
2021/09/26 11:04:55;;;;;;;4.05;3.70;;;;;;;;;;5094509;28;20114;-59
2021/09/26 11:07:26;;;;;;;4.10;3.70;;;;;;;;;;5076241;28;20090;-59
2021/09/26 11:09:53;;;;;;;4.40;4.10;;;;;;;;;;5094364;28;20032;-59
2021/09/26 11:12:37;;;;;;;7.15;3.90;;;;;;;;;;5094202;28;20039;-59
2021/09/26 11:15:04;;;;;;;5.30;3.92;;;;;;;;;;5076204;28;20032;-59
2021/09/26 11:17:41;;;;;;;4.10;3.80;;;;;;;;;;5076226;28;20035;-59
2021/09/26 11:20:07;;;;;;;5.65;4.75;;;;;;;;;;5094239;28;20032;-59
2021/09/26 11:22:33;;;;;;;4.53;4.10;;;;;;;;;;5093742;28;20016;-59
2021/09/26 11:24:59;;;;;;;6.57;3.92;;;;;;;;;;5093900;28;20024;-59
2021/09/26 11:27:32;;;;;;;4.95;3.75;;;;;;;;;;5094106;28;20033;-59
2021/09/26 11:30:07;;;;;;;6.50;4.43;;;;;;;;;;5093790;28;20077;-58
2021/09/26 11:32:33;;;;;;;4.00;3.30;;;;;;;;;;5093787;28;20086;-58
2021/09/26 11:35:00;;;;;;;4.00;3.72;;;;;;;;;;5093739;28;20028;-59
2021/09/26 11:37:34;;;;;;;4.18;3.85;;;;;;;;;;5075424;28;20036;-58
2021/09/26 11:40:02;;;;;;;4.20;3.90;;;;;;;;;;5093455;28;20067;-58
2021/09/26 11:42:27;;;;;;;4.30;3.90;;;;;;;;;;5093475;28;20111;-59
2021/09/26 11:44:53;;;;;;;3.80;3.50;;;;;;;;;;5093312;28;20039;-59
2021/09/26 11:47:19;;;;;;;3.78;3.55;;;;;;;;;;5093564;28;20094;-59
2021/09/26 11:49:44;;;;;;;3.92;3.63;;;;;;;;;;5093664;28;20028;-59
2021/09/26 11:52:10;;;;;;;4.10;3.70;;;;;;;;;;5093323;28;20388;-59
2021/09/26 11:54:35;;;;;;;4.05;3.75;;;;;;;;;;5092740;28;20036;-59
2021/09/26 11:57:01;;;;;;;3.97;3.42;;;;;;;;;;5093350;28;20484;-58
2021/09/26 11:59:35;;;;;;;4.32;3.95;;;;;;;;;;5093211;28;20047;-59
2021/09/26 12:02:09;;;;;;;4.90;3.70;;;;;;;;;;5093595;28;20023;-59
2021/09/26 12:04:34;;;;;;;3.95;3.75;;;;;;;;;;5074644;28;20349;-59
2021/09/26 12:07:01;;;;;;;4.18;3.88;;;;;;;;;;5093468;28;20096;-59
2021/09/26 12:09:36;;;;;;;4.40;4.00;;;;;;;;;;5093219;28;20028;-59
2021/09/26 12:12:11;;;;;;;4.00;3.70;;;;;;;;;;5093692;28;20060;-59
2021/09/26 12:14:38;;;;;;;4.65;4.28;;;;;;;;;;5093492;28;20063;-59
2021/09/26 12:17:04;;;;;;;3.97;3.60;;;;;;;;;;5093758;28;20444;-59
2021/09/26 12:19:31;;;;;;;4.35;3.65;;;;;;;;;;5093446;28;20079;-59
2021/09/26 12:22:12;;;;;;;4.20;3.90;;;;;;;;;;5093156;28;20013;-59
2021/09/26 12:24:38;;;;;;;4.18;3.88;;;;;;;;;;5093170;28;20020;-59
2021/09/26 12:27:32;;;;;;;4.65;4.20;;;;;;;;;;5093081;28;20095;-59
2021/09/26 12:30:00;;;;;;;5.53;4.47;;;;;;;;;;5071590;28;20131;-59
2021/09/26 12:32:28;;;;;;;4.18;3.85;;;;;;;;;;5093321;28;20020;-59
2021/09/26 12:34:55;;;;;;;4.05;3.55;;;;;;;;;;5093473;28;20028;-59
2021/09/26 12:37:23;;;;;;;4.30;4.00;;;;;;;;;;5093282;28;20047;-59
2021/09/26 12:39:51;;;;;;;4.15;3.85;;;;;;;;;;5093115;28;20122;-59
2021/09/26 12:42:21;;;;;;;4.95;4.47;;;;;;;;;;5093089;28;20020;-59
2021/09/26 12:44:47;;;;;;;4.28;3.90;;;;;;;;;;5092845;28;20028;-59
2021/09/26 12:47:25;;;;;;;5.95;5.35;;;;;;;;;;5075188;28;20020;-59
2021/09/26 12:49:51;;;;;;;4.22;3.92;;;;;;;;;;5093131;28;20063;-58
2021/09/26 12:52:18;;;;;;;4.35;3.50;;;;;;;;;;5092898;28;20369;-59
2021/09/26 12:54:46;;;;;;;5.80;4.95;;;;;;;;;;5093034;28;20043;-58
2021/09/26 12:57:17;;;;;;;4.80;4.25;;;;;;;;;;5092508;28;20416;-59
2021/09/26 12:59:44;;;;;;;4.40;4.00;;;;;;;;;;5093125;28;20036;-59
2021/09/26 13:02:20;;;;;;;4.47;4.18;;;;;;;;;;5093003;28;20028;-58
2021/09/26 13:05:15;;;;;;;5.35;4.82;;;;;;;;;;5093019;28;20032;-58
2021/09/26 13:07:41;;;;;;;15.00;12.38;;;;;;;;;;5070992;28;20040;-58
2021/09/26 13:10:08;;;;;;;5.70;5.20;;;;;;;;;;5092522;28;20028;-59
2021/09/26 13:12:34;;;;;;;4.80;4.38;;;;;;;;;;5093182;28;20081;-59
2021/09/26 13:15:07;;;;;;;4.10;3.78;;;;;;;;;;5093600;28;20411;-59
2021/09/26 13:17:32;;;;;;;4.05;3.75;;;;;;;;;;5078481;28;20068;-58
2021/09/26 13:19:58;;;;;;;5.35;4.80;;;;;;;;;;5096260;28;20051;-59
2021/09/26 13:22:29;;;;;;;5.38;4.88;;;;;;;;;;5096186;28;20035;-59
2021/09/26 13:24:57;;;;;;;5.35;4.50;;;;;;;;;;5096352;28;20483;-59
2021/09/26 13:27:31;;;;;;;6.32;5.70;;;;;;;;;;5095033;28;20035;-59
2021/09/26 13:29:58;;;;;;;4.40;4.10;;;;;;;;;;5095612;28;20028;-59
2021/09/26 13:32:26;;;;;;;4.22;3.92;;;;;;;;;;5096383;28;20028;-59
2021/09/26 13:34:59;;;;;;;4.47;4.07;;;;;;;;;;5096044;28;20032;-59
2021/09/26 13:37:25;;;;;;;4.57;4.10;;;;;;;;;;5094597;28;20035;-59
2021/09/26 13:39:53;;;;;;;5.65;4.13;;;;;;;;;;5095879;28;20023;-59
2021/09/26 13:42:19;;;;;;;6.38;5.00;;;;;;;;;;5096047;28;20032;-58
2021/09/26 13:44:45;;;;;;;12.45;9.70;;;;;;;;;;5095464;28;20016;-58
2021/09/26 13:47:10;;;;;;;5.38;4.82;;;;;;;;;;5094637;28;20057;-57
2021/09/26 13:49:36;;;;;;;5.22;4.82;;;;;;;;;;5095882;28;20480;-60
2021/09/26 13:52:03;;;;;;;6.82;6.05;;;;;;;;;;5095568;28;20549;-60
2021/09/26 13:54:32;;;;;;;5.88;4.50;;;;;;;;;;5095584;28;20055;-61
2021/09/26 13:56:58;;;;;;;6.20;4.22;;;;;;;;;;5095947;28;20116;-61
2021/09/26 13:59:24;;;;;;;5.13;4.68;;;;;;;;;;5095401;28;20047;-61
2021/09/26 14:01:49;;;;;;;5.70;5.20;;;;;;;;;;5095601;28;20048;-60
2021/09/26 14:04:15;;;;;;;4.32;3.92;;;;;;;;;;5094194;28;20111;-61
2021/09/26 14:06:41;;;;;;;5.55;5.05;;;;;;;;;;5095555;28;20027;-60
2021/09/26 14:09:06;;;;;;;5.07;4.68;;;;;;;;;;5095417;28;20031;-60
2021/09/26 14:11:33;;;;;;;4.57;4.28;;;;;;;;;;5095395;28;20438;-60
2021/09/26 14:13:59;;;;;;;4.85;4.47;;;;;;;;;;5076931;28;20086;-60
2021/09/26 14:16:25;;;;;;;4.60;4.20;;;;;;;;;;5095169;28;20028;-61
2021/09/26 14:18:50;;;;;;;4.75;4.38;;;;;;;;;;5095160;28;20426;-60
2021/09/26 14:21:16;;;;;;;5.00;4.63;;;;;;;;;;5094914;28;20028;-61
2021/09/26 14:23:42;;;;;;;4.85;4.47;;;;;;;;;;5095275;28;20012;-61
2021/09/26 14:26:08;;;;;;;6.50;5.18;;;;;;;;;;5095031;28;20381;-60
2021/09/26 14:28:34;;;;;;;4.78;4.38;;;;;;;;;;5076720;28;20460;-60
2021/09/26 14:31:01;;;;;;;6.93;4.93;;;;;;;;;;5094929;28;20028;-61
2021/09/26 14:33:27;;;;;;;5.13;4.72;;;;;;;;;;5094722;28;20102;-60